EGHE/ISC METAR and TAF weather

Enter ICAO airport designator
Station Type Date Time Source
EGHE METAR 2019/02/21 12:20 UTC NOAA

EGHE 211220Z 17020KT CAVOK 12/10 Q1023


Station Type Date Time Source
EGHE Decoded METAR 2019/02/21 12:20 UTC NOAA

Scilly, Saint Mary'S, United Kingdom (EGHE) 49-55N 006-18W 0M
Feb 21, 2019 - 07:20 AM EST / 2019.02.21 1220 UTC
Wind: from the S (170 degrees) at 23 MPH (20 KT):0
Visibility: greater than 7 mile(s):0
Temperature: 53 F (12 C)
Dew Point: 50 F (10 C)
Relative Humidity: 87%
Pressure (altimeter): 30.21 in. Hg (1023 hPa)
ob: EGHE 211220Z 17020KT CAVOK 12/10 Q1023
cycle: 12

Station Type Date Time Source
EGHE TAF UTC NOAA

Error!


Example: see airport list